createdAt,value
2017-09-20T00:00:41.744Z,1009.7
2017-09-20T00:01:44.186Z,1009.6
2017-09-20T00:02:46.621Z,1009.6
2017-09-20T00:03:49.069Z,1009.6
2017-09-20T00:04:51.507Z,1009.6
2017-09-20T00:05:53.958Z,1009.6
2017-09-20T00:06:56.401Z,1009.6
2017-09-20T00:07:58.846Z,1009.5
2017-09-20T00:09:01.291Z,1009.6
2017-09-20T00:10:03.744Z,1009.5
2017-09-20T00:11:06.526Z,1009.5
2017-09-20T00:12:08.973Z,1009.5
2017-09-20T00:13:11.415Z,1009.5
2017-09-20T00:14:13.863Z,1009.5
2017-09-20T00:15:16.311Z,1009.5
2017-09-20T00:16:18.759Z,1009.5
2017-09-20T00:17:21.531Z,1009.5
2017-09-20T00:18:23.986Z,1009.5
2017-09-20T00:19:26.428Z,1009.5
2017-09-20T00:20:28.873Z,1009.4
2017-09-20T00:21:31.665Z,1009.5
2017-09-20T00:22:34.105Z,1009.4
2017-09-20T00:23:36.548Z,1009.4
2017-09-20T00:24:39.005Z,1009.4
2017-09-20T00:25:41.456Z,1009.4
2017-09-20T00:26:43.908Z,1009.4
2017-09-20T00:27:46.355Z,1009.3
2017-09-20T00:28:48.801Z,1009.4
2017-09-20T00:29:51.250Z,1009.4
2017-09-20T00:30:53.691Z,1009.3
2017-09-20T00:31:56.141Z,1009.3
2017-09-20T00:32:58.924Z,1009.4
2017-09-20T00:34:01.365Z,1009.3
2017-09-20T00:35:03.809Z,1009.3
2017-09-20T00:36:06.256Z,1009.3
2017-09-20T00:37:08.701Z,1009.3
2017-09-20T00:38:11.153Z,1009.3
2017-09-20T00:39:13.593Z,1009.4
2017-09-20T00:40:16.043Z,1009.3
2017-09-20T00:41:18.488Z,1009.3
2017-09-20T00:42:20.936Z,1009.3
2017-09-20T00:43:23.378Z,1009.4
2017-09-20T00:44:25.830Z,1009.3
2017-09-20T00:45:28.278Z,1009.3
2017-09-20T00:46:30.723Z,1009.3
2017-09-20T00:47:33.162Z,1009.3
2017-09-20T00:48:35.607Z,1009.4
2017-09-20T00:49:38.050Z,1009.3
2017-09-20T00:50:40.501Z,1009.3
2017-09-20T00:51:42.939Z,1009.3
2017-09-20T00:52:45.388Z,1009.3
2017-09-20T00:53:47.831Z,1009.3
2017-09-20T00:54:50.276Z,1009.3
2017-09-20T00:55:52.718Z,1009.3
2017-09-20T00:56:55.168Z,1009.3
2017-09-20T00:57:57.602Z,1009.3
2017-09-20T00:59:00.045Z,1009.3
2017-09-20T01:00:02.494Z,1009.3
2017-09-20T01:01:04.941Z,1009.3
2017-09-20T01:02:07.378Z,1009.3
2017-09-20T01:03:10.174Z,1009.3
2017-09-20T01:04:12.619Z,1009.3
2017-09-20T01:05:15.066Z,1009.3
2017-09-20T01:06:17.510Z,1009.3
2017-09-20T01:07:19.956Z,1009.3
2017-09-20T01:08:22.399Z,1009.3
2017-09-20T01:09:24.860Z,1009.3
2017-09-20T01:10:27.638Z,1009.3
2017-09-20T01:11:30.077Z,1009.3
2017-09-20T01:12:32.521Z,1009.3
2017-09-20T01:13:34.966Z,1009.3
2017-09-20T01:14:37.414Z,1009.3
2017-09-20T01:15:39.863Z,1009.3
2017-09-20T01:16:42.297Z,1009.3
2017-09-20T01:17:44.748Z,1009.3
2017-09-20T01:18:47.189Z,1009.3
2017-09-20T01:19:49.639Z,1009.2
2017-09-20T01:20:52.085Z,1009.3
2017-09-20T01:21:54.533Z,1009.2
2017-09-20T01:22:56.978Z,1009.2
2017-09-20T01:23:59.432Z,1009.2
2017-09-20T01:25:01.891Z,1009.2
2017-09-20T01:26:04.666Z,1009.2
2017-09-20T01:27:07.109Z,1009.2
2017-09-20T01:28:09.564Z,1009.2
2017-09-20T01:29:12.005Z,1009.2
2017-09-20T01:30:14.447Z,1009.2
2017-09-20T01:31:16.894Z,1009.2
2017-09-20T01:32:19.335Z,1009.2
2017-09-20T01:33:21.786Z,1009.2
2017-09-20T01:34:24.234Z,1009.2
2017-09-20T01:35:26.671Z,1009.2
2017-09-20T01:36:29.121Z,1009.1
2017-09-20T01:37:31.569Z,1009.2
2017-09-20T01:38:34.011Z,1009.2
2017-09-20T01:39:36.459Z,1009.2
2017-09-20T01:40:38.897Z,1009.2
2017-09-20T01:41:41.339Z,1009.2
2017-09-20T01:42:43.795Z,1009.2
2017-09-20T01:43:46.234Z,1009.2
2017-09-20T01:44:48.671Z,1009.2
2017-09-20T01:45:51.470Z,1009.2
2017-09-20T01:46:54.255Z,1009.2
2017-09-20T01:47:56.706Z,1009.2
2017-09-20T01:48:59.156Z,1009.3
2017-09-20T01:50:01.588Z,1009.2
2017-09-20T01:51:04.038Z,1009.2
2017-09-20T01:52:06.483Z,1009.2
2017-09-20T01:53:08.925Z,1009.2
2017-09-20T01:54:11.370Z,1009.3
2017-09-20T01:55:13.814Z,1009.2
2017-09-20T01:56:16.260Z,1009.2
2017-09-20T01:57:18.703Z,1009.2
2017-09-20T01:58:21.149Z,1009.3
2017-09-20T01:59:23.593Z,1009.3
2017-09-20T02:00:26.041Z,1009.3
2017-09-20T02:01:28.485Z,1009.2
2017-09-20T02:02:30.936Z,1009.3
2017-09-20T02:03:33.380Z,1009.3
2017-09-20T02:04:35.826Z,1009.3
2017-09-20T02:05:38.276Z,1009.3
2017-09-20T02:06:40.723Z,1009.3
2017-09-20T02:07:43.843Z,1009.3
2017-09-20T02:08:46.288Z,1009.3
2017-09-20T02:09:49.069Z,1009.3
2017-09-20T02:10:51.513Z,1009.3
2017-09-20T02:11:53.959Z,1009.2
2017-09-20T02:12:56.409Z,1009.2
2017-09-20T02:13:58.851Z,1009.3
2017-09-20T02:15:01.648Z,1009.3
2017-09-20T02:16:04.093Z,1009.3
2017-09-20T02:17:06.539Z,1009.2
2017-09-20T02:18:08.986Z,1009.2
2017-09-20T02:19:11.429Z,1009.2
2017-09-20T02:20:13.879Z,1009.3
2017-09-20T02:21:16.324Z,1009.3
2017-09-20T02:22:18.765Z,1009.3
2017-09-20T02:23:21.219Z,1009.3
2017-09-20T02:24:23.661Z,1009.3
2017-09-20T02:25:26.092Z,1009.3
2017-09-20T02:26:28.533Z,1009.3
2017-09-20T02:27:30.976Z,1009.2
2017-09-20T02:28:33.419Z,1009.3
2017-09-20T02:29:35.866Z,1009.3
2017-09-20T02:30:38.314Z,1009.3
2017-09-20T02:31:40.759Z,1009.3
2017-09-20T02:32:43.208Z,1009.3
2017-09-20T02:33:45.991Z,1009.3
2017-09-20T02:34:48.440Z,1009.3
2017-09-20T02:35:50.881Z,1009.3
2017-09-20T02:36:53.326Z,1009.3
2017-09-20T02:37:55.767Z,1009.3
2017-09-20T02:38:58.206Z,1009.3
2017-09-20T02:40:00.645Z,1009.3
2017-09-20T02:41:03.095Z,1009.3
2017-09-20T02:42:05.544Z,1009.3
2017-09-20T02:43:08.692Z,1009.3
2017-09-20T02:44:11.130Z,1009.4
2017-09-20T02:45:13.574Z,1009.4
2017-09-20T02:46:16.012Z,1009.3
2017-09-20T02:47:18.469Z,1009.3
2017-09-20T02:48:20.904Z,1009.3
2017-09-20T02:49:23.351Z,1009.4
2017-09-20T02:50:25.796Z,1009.4
2017-09-20T02:51:28.575Z,1009.4
2017-09-20T02:52:31.018Z,1009.4
2017-09-20T02:53:33.467Z,1009.4
2017-09-20T02:54:35.913Z,1009.4
2017-09-20T02:55:38.354Z,1009.3
2017-09-20T02:56:40.798Z,1009.4
2017-09-20T02:57:43.241Z,1009.4
2017-09-20T02:58:45.700Z,1009.3
2017-09-20T02:59:48.144Z,1009.4
2017-09-20T03:00:50.587Z,1009.3
2017-09-20T03:01:53.027Z,1009.3
2017-09-20T03:02:55.473Z,1009.3
2017-09-20T03:03:57.916Z,1009.3
2017-09-20T03:05:00.357Z,1009.3
2017-09-20T03:06:02.794Z,1009.3
2017-09-20T03:07:05.233Z,1009.3
2017-09-20T03:08:07.680Z,1009.3
2017-09-20T03:09:10.123Z,1009.3
2017-09-20T03:10:12.573Z,1009.3
2017-09-20T03:11:15.359Z,1009.3
2017-09-20T03:12:17.803Z,1009.3
2017-09-20T03:13:20.254Z,1009.3
2017-09-20T03:14:22.700Z,1009.3
2017-09-20T03:15:25.135Z,1009.3
2017-09-20T03:16:27.577Z,1009.3
2017-09-20T03:17:30.023Z,1009.3
2017-09-20T03:18:32.472Z,1009.3
2017-09-20T03:19:34.921Z,1009.3
2017-09-20T03:20:37.355Z,1009.2
2017-09-20T03:21:39.801Z,1009.3
2017-09-20T03:22:42.254Z,1009.3
2017-09-20T03:23:44.694Z,1009.3
2017-09-20T03:24:47.146Z,1009.3
2017-09-20T03:25:49.590Z,1009.3
2017-09-20T03:26:52.401Z,1009.3
2017-09-20T03:27:54.848Z,1009.3
2017-09-20T03:28:57.297Z,1009.3
2017-09-20T03:29:59.743Z,1009.3
2017-09-20T03:31:02.550Z,1009.3
2017-09-20T03:32:04.992Z,1009.3
2017-09-20T03:33:07.779Z,1009.3
2017-09-20T03:34:10.220Z,1009.3
2017-09-20T03:35:12.670Z,1009.3
2017-09-20T03:36:15.112Z,1009.3
2017-09-20T03:37:17.558Z,1009.3
2017-09-20T03:38:19.994Z,1009.3
2017-09-20T03:39:22.448Z,1009.3
2017-09-20T03:40:24.886Z,1009.3
2017-09-20T03:41:27.330Z,1009.3
2017-09-20T03:42:29.772Z,1009.3
2017-09-20T03:43:32.218Z,1009.3
2017-09-20T03:44:34.659Z,1009.3
2017-09-20T03:45:37.112Z,1009.4
2017-09-20T03:46:39.549Z,1009.3
2017-09-20T03:47:42.001Z,1009.4
2017-09-20T03:48:44.449Z,1009.4
2017-09-20T03:49:46.898Z,1009.3
2017-09-20T03:50:49.341Z,1009.3
2017-09-20T03:51:51.779Z,1009.3
2017-09-20T03:52:54.218Z,1009.4
2017-09-20T03:53:56.658Z,1009.4
2017-09-20T03:54:59.103Z,1009.4
2017-09-20T03:56:01.553Z,1009.4
2017-09-20T03:57:03.992Z,1009.4
2017-09-20T03:58:06.822Z,1009.4
2017-09-20T03:59:09.261Z,1009.4
2017-09-20T04:00:11.706Z,1009.4
2017-09-20T04:01:14.150Z,1009.4
2017-09-20T04:02:16.593Z,1009.4
2017-09-20T04:03:19.031Z,1009.4
2017-09-20T04:04:21.479Z,1009.4
2017-09-20T04:05:23.939Z,1009.4
2017-09-20T04:06:26.383Z,1009.4
2017-09-20T04:07:28.828Z,1009.4
2017-09-20T04:08:31.269Z,1009.4
2017-09-20T04:09:33.708Z,1009.5
2017-09-20T04:10:36.163Z,1009.4
2017-09-20T04:11:38.600Z,1009.4
2017-09-20T04:12:41.032Z,1009.4
2017-09-20T04:13:43.480Z,1009.5
2017-09-20T04:14:45.921Z,1009.4
2017-09-20T04:15:48.370Z,1009.4
2017-09-20T04:16:50.819Z,1009.4
2017-09-20T04:17:53.255Z,1009.4
2017-09-20T04:18:55.704Z,1009.4
2017-09-20T04:19:58.159Z,1009.4
2017-09-20T04:21:00.598Z,1009.4
2017-09-20T04:22:03.038Z,1009.4
2017-09-20T04:23:05.489Z,1009.5
2017-09-20T04:24:07.934Z,1009.5
2017-09-20T04:25:10.375Z,1009.4
2017-09-20T04:26:12.826Z,1009.5
2017-09-20T04:27:15.278Z,1009.5
2017-09-20T04:28:17.723Z,1009.5
2017-09-20T04:29:20.160Z,1009.5
2017-09-20T04:30:22.605Z,1009.5
2017-09-20T04:31:25.045Z,1009.6
2017-09-20T04:32:27.492Z,1009.5
2017-09-20T04:33:29.933Z,1009.5
2017-09-20T04:34:32.376Z,1009.5
2017-09-20T04:35:35.164Z,1009.5
2017-09-20T04:36:37.617Z,1009.5
2017-09-20T04:37:40.057Z,1009.5
2017-09-20T04:38:42.499Z,1009.5
2017-09-20T04:39:44.944Z,1009.6
2017-09-20T04:40:47.397Z,1009.6
2017-09-20T04:41:49.845Z,1009.7
2017-09-20T04:42:52.291Z,1009.7
2017-09-20T04:43:54.722Z,1009.6
2017-09-20T04:44:57.173Z,1009.6
2017-09-20T04:45:59.617Z,1009.6
2017-09-20T04:47:02.065Z,1009.6
2017-09-20T04:48:04.507Z,1009.6
2017-09-20T04:49:06.945Z,1009.6
2017-09-20T04:50:09.389Z,1009.6
2017-09-20T04:51:11.841Z,1009.7
2017-09-20T04:52:14.984Z,1009.6
2017-09-20T04:53:17.427Z,1009.6
2017-09-20T04:54:19.868Z,1009.6
2017-09-20T04:55:22.306Z,1009.6
2017-09-20T04:56:24.752Z,1009.7
2017-09-20T04:57:27.533Z,1009.7
2017-09-20T04:58:29.981Z,1009.7
2017-09-20T04:59:32.423Z,1009.7
2017-09-20T05:00:34.868Z,1009.7
2017-09-20T05:01:37.317Z,1009.7
2017-09-20T05:02:39.768Z,1009.7
2017-09-20T05:03:42.216Z,1009.7
2017-09-20T05:04:44.676Z,1009.7
2017-09-20T05:05:47.113Z,1009.7
2017-09-20T05:06:49.562Z,1009.7
2017-09-20T05:07:52.003Z,1009.7
2017-09-20T05:08:54.443Z,1009.7
2017-09-20T05:09:56.887Z,1009.7
2017-09-20T05:10:59.682Z,1009.7
2017-09-20T05:12:02.126Z,1009.7
2017-09-20T05:13:04.571Z,1009.7
2017-09-20T05:14:07.010Z,1009.7
2017-09-20T05:15:09.461Z,1009.8
2017-09-20T05:16:11.900Z,1009.7
2017-09-20T05:17:14.700Z,1009.7
2017-09-20T05:18:17.135Z,1009.7
2017-09-20T05:19:19.584Z,1009.7
2017-09-20T05:20:22.025Z,1009.7
2017-09-20T05:21:24.473Z,1009.7
2017-09-20T05:22:26.927Z,1009.7
2017-09-20T05:23:29.371Z,1009.8
2017-09-20T05:24:31.809Z,1009.8
2017-09-20T05:25:34.247Z,1009.8
2017-09-20T05:26:36.701Z,1009.7
2017-09-20T05:27:39.486Z,1009.7
2017-09-20T05:28:41.925Z,1009.7
2017-09-20T05:29:44.708Z,1009.7
2017-09-20T05:30:47.155Z,1009.7
2017-09-20T05:31:49.608Z,1009.7
2017-09-20T05:32:52.760Z,1009.7
2017-09-20T05:33:55.189Z,1009.8
2017-09-20T05:34:57.636Z,1009.8
2017-09-20T05:36:00.090Z,1009.8
2017-09-20T05:37:02.531Z,1009.8
2017-09-20T05:38:04.981Z,1009.8
2017-09-20T05:39:07.423Z,1009.8
2017-09-20T05:40:10.207Z,1009.8
2017-09-20T05:41:12.648Z,1009.8
2017-09-20T05:42:15.095Z,1009.8
2017-09-20T05:43:17.530Z,1009.8
2017-09-20T05:44:19.980Z,1009.8
2017-09-20T05:45:22.431Z,1009.9
2017-09-20T05:46:24.875Z,1009.8
2017-09-20T05:47:27.331Z,1009.9
2017-09-20T05:48:29.772Z,1009.8
2017-09-20T05:49:32.561Z,1009.8
2017-09-20T05:50:35.011Z,1009.9
2017-09-20T05:51:37.462Z,1009.8
2017-09-20T05:52:39.909Z,1009.8
2017-09-20T05:53:42.357Z,1009.8
2017-09-20T05:54:44.805Z,1009.8
2017-09-20T05:55:47.248Z,1009.8
2017-09-20T05:56:49.688Z,1009.8
2017-09-20T05:57:52.139Z,1009.8
2017-09-20T05:58:54.574Z,1009.9
2017-09-20T05:59:57.020Z,1009.8
2017-09-20T06:00:59.463Z,1009.9
2017-09-20T06:02:02.256Z,1009.9
2017-09-20T06:03:04.707Z,1009.8
2017-09-20T06:04:07.487Z,1009.8
2017-09-20T06:05:09.927Z,1009.8
2017-09-20T06:06:12.374Z,1009.9
2017-09-20T06:07:14.825Z,1009.9
2017-09-20T06:08:17.273Z,1009.9
2017-09-20T06:09:19.719Z,1009.9
2017-09-20T06:10:22.170Z,1009.9
2017-09-20T06:11:24.968Z,1009.9
2017-09-20T06:12:27.419Z,1009.9
2017-09-20T06:13:29.859Z,1009.9
2017-09-20T06:14:32.311Z,1009.9
2017-09-20T06:15:34.762Z,1009.9
2017-09-20T06:16:37.207Z,1009.9
2017-09-20T06:17:39.649Z,1009.9
2017-09-20T06:18:42.103Z,1009.9
2017-09-20T06:19:44.544Z,1009.9
2017-09-20T06:20:46.984Z,1009.8
2017-09-20T06:21:49.432Z,1009.9
2017-09-20T06:22:52.222Z,1009.9
2017-09-20T06:23:54.670Z,1009.9
2017-09-20T06:24:57.104Z,1009.9
2017-09-20T06:25:59.548Z,1009.9
2017-09-20T06:27:01.989Z,1009.9
2017-09-20T06:28:04.435Z,1009.9
2017-09-20T06:29:06.880Z,1009.9
2017-09-20T06:30:09.327Z,1009.9
2017-09-20T06:31:11.780Z,1010
2017-09-20T06:32:14.224Z,1009.8
2017-09-20T06:33:16.672Z,1009.9
2017-09-20T06:34:19.113Z,1009.9
2017-09-20T06:35:21.561Z,1009.9
2017-09-20T06:36:23.999Z,1010
2017-09-20T06:37:26.443Z,1010
2017-09-20T06:38:28.887Z,1010
2017-09-20T06:39:31.335Z,1010
2017-09-20T06:40:33.775Z,1010
2017-09-20T06:41:36.568Z,1009.9
2017-09-20T06:42:39.000Z,1010
2017-09-20T06:43:41.458Z,1009.9
2017-09-20T06:44:43.897Z,1009.9
2017-09-20T06:45:46.697Z,1009.9
2017-09-20T06:46:49.150Z,1009.9
2017-09-20T06:47:51.935Z,1010
2017-09-20T06:48:54.376Z,1010
2017-09-20T06:49:56.831Z,1009.9
2017-09-20T06:50:59.274Z,1010
2017-09-20T06:52:01.718Z,1009.9
2017-09-20T06:53:04.162Z,1010
2017-09-20T06:54:06.611Z,1010
2017-09-20T06:55:09.062Z,1010
2017-09-20T06:56:11.523Z,1010
2017-09-20T06:57:13.985Z,1009.9
2017-09-20T06:58:16.431Z,1009.9
2017-09-20T06:59:19.239Z,1009.9
2017-09-20T07:00:21.679Z,1010
2017-09-20T07:01:24.131Z,1010
2017-09-20T07:02:26.911Z,1010
2017-09-20T07:03:29.359Z,1010
2017-09-20T07:04:31.808Z,1010
2017-09-20T07:05:34.253Z,1009.9
2017-09-20T07:06:36.693Z,1010
2017-09-20T07:07:39.135Z,1010
2017-09-20T07:08:41.595Z,1010
2017-09-20T07:09:44.046Z,1010
2017-09-20T07:10:46.494Z,1010
2017-09-20T07:11:48.937Z,1009.9
2017-09-20T07:12:51.386Z,1010
2017-09-20T07:13:53.840Z,1009.9
2017-09-20T07:14:56.289Z,1009.9
2017-09-20T07:15:58.731Z,1010
2017-09-20T07:17:01.182Z,1010
2017-09-20T07:18:04.326Z,1009.9
2017-09-20T07:19:06.769Z,1010
2017-09-20T07:20:09.224Z,1010
2017-09-20T07:21:11.672Z,1010
2017-09-20T07:22:14.464Z,1010
2017-09-20T07:23:16.911Z,1010
2017-09-20T07:24:19.364Z,1010
2017-09-20T07:25:21.814Z,1010
2017-09-20T07:26:24.265Z,1009.9
2017-09-20T07:27:26.713Z,1009.9
2017-09-20T07:28:29.165Z,1010
2017-09-20T07:29:31.608Z,1010
2017-09-20T07:30:34.063Z,1010
2017-09-20T07:31:36.507Z,1009.9
2017-09-20T07:32:39.304Z,1009.9
2017-09-20T07:33:41.754Z,1010
2017-09-20T07:34:44.540Z,1010
2017-09-20T07:35:46.997Z,1010
2017-09-20T07:36:49.447Z,1010
2017-09-20T07:37:51.896Z,1010
2017-09-20T07:38:54.686Z,1010
2017-09-20T07:39:57.475Z,1010
2017-09-20T07:40:59.931Z,1010
2017-09-20T07:42:02.385Z,1010
2017-09-20T07:43:05.174Z,1010
2017-09-20T07:44:07.627Z,1010.1
2017-09-20T07:45:10.082Z,1010
2017-09-20T07:46:12.530Z,1010.1
2017-09-20T07:47:14.979Z,1010.1
2017-09-20T07:48:17.431Z,1010.1
2017-09-20T07:49:19.870Z,1010.1
2017-09-20T07:50:22.329Z,1010.1
2017-09-20T07:51:24.804Z,1010.1
2017-09-20T07:52:27.603Z,1010.1
2017-09-20T07:53:30.064Z,1010.1
2017-09-20T07:54:32.519Z,1010.2
2017-09-20T07:55:35.341Z,1010.1
2017-09-20T07:56:37.777Z,1010.2
2017-09-20T07:57:40.228Z,1010.2
2017-09-20T07:58:42.672Z,1010.2
2017-09-20T07:59:45.134Z,1010.2
2017-09-20T08:00:47.587Z,1010.2
2017-09-20T08:01:50.036Z,1010.2
2017-09-20T08:02:52.485Z,1010.2
2017-09-20T08:03:54.942Z,1010.2
2017-09-20T08:04:57.387Z,1010.2
2017-09-20T08:05:59.841Z,1010.2
2017-09-20T08:07:02.289Z,1010.2
2017-09-20T08:08:04.732Z,1010.3
2017-09-20T08:09:07.176Z,1010.2
2017-09-20T08:10:09.622Z,1010.2
2017-09-20T08:11:12.069Z,1010.2
2017-09-20T08:12:14.513Z,1010.2
2017-09-20T08:13:16.967Z,1010.2
2017-09-20T08:14:19.420Z,1010.2
2017-09-20T08:15:21.887Z,1010.2
2017-09-20T08:16:24.679Z,1010.2
2017-09-20T08:17:27.129Z,1010.2
2017-09-20T08:18:29.575Z,1010.2
2017-09-20T08:19:32.030Z,1010.2
2017-09-20T08:20:34.467Z,1010.2
2017-09-20T08:21:37.263Z,1010.2
2017-09-20T08:22:39.720Z,1010.2
2017-09-20T08:23:42.165Z,1010.2
2017-09-20T08:24:44.625Z,1010.2
2017-09-20T08:25:47.071Z,1010.1
2017-09-20T08:26:49.514Z,1010.2
2017-09-20T08:27:51.974Z,1010.2
2017-09-20T08:28:54.451Z,1010.1
2017-09-20T08:29:56.859Z,1010.2
2017-09-20T08:30:59.315Z,1010.2
2017-09-20T08:32:01.768Z,1010.2
2017-09-20T08:33:04.562Z,1010.2
2017-09-20T08:34:07.011Z,1010.2
2017-09-20T08:35:09.451Z,1010.2
2017-09-20T08:36:11.904Z,1010.2
2017-09-20T08:37:14.358Z,1010.2
2017-09-20T08:38:16.804Z,1010.2
2017-09-20T08:39:19.248Z,1010.2
2017-09-20T08:40:21.699Z,1010.2
2017-09-20T08:41:24.140Z,1010.2
2017-09-20T08:42:26.590Z,1010.2
2017-09-20T08:43:29.035Z,1010.2
2017-09-20T08:44:31.481Z,1010.2
2017-09-20T08:45:33.927Z,1010.3
2017-09-20T08:46:36.381Z,1010.2
2017-09-20T08:47:38.827Z,1010.3
2017-09-20T08:48:41.271Z,1010.2
2017-09-20T08:49:43.723Z,1010.3
2017-09-20T08:50:46.169Z,1010.3
2017-09-20T08:51:48.615Z,1010.3
2017-09-20T08:52:51.065Z,1010.3
2017-09-20T08:53:53.517Z,1010.3
2017-09-20T08:54:55.968Z,1010.3
2017-09-20T08:55:58.409Z,1010.3
2017-09-20T08:57:00.857Z,1010.2
2017-09-20T08:58:03.645Z,1010.3
2017-09-20T08:59:06.443Z,1010.3
2017-09-20T09:00:08.895Z,1010.3
2017-09-20T09:01:11.353Z,1010.3
2017-09-20T09:02:13.802Z,1010.3
2017-09-20T09:03:16.257Z,1010.3
2017-09-20T09:04:18.701Z,1010.3
2017-09-20T09:05:21.508Z,1010.3
2017-09-20T09:06:23.951Z,1010.3
2017-09-20T09:07:26.396Z,1010.3
2017-09-20T09:08:28.849Z,1010.3
2017-09-20T09:09:31.528Z,1010.4
2017-09-20T09:10:36.178Z,1010.3
2017-09-20T09:11:38.633Z,1010.4
2017-09-20T09:12:41.070Z,1010.3
2017-09-20T09:13:44.581Z,1010.4
2017-09-20T09:14:47.949Z,1010.4
2017-09-20T09:15:51.354Z,1010.4
2017-09-20T09:16:54.144Z,1010.4
2017-09-20T09:17:56.591Z,1010.4
2017-09-20T09:18:59.039Z,1010.4
2017-09-20T09:20:01.519Z,1010.4
2017-09-20T09:21:04.306Z,1010.4
2017-09-20T09:22:06.765Z,1010.4
2017-09-20T09:23:10.196Z,1010.4
2017-09-20T09:24:13.446Z,1010.4
2017-09-20T09:25:18.466Z,1010.4
2017-09-20T09:26:22.387Z,1010.4
2017-09-20T09:27:26.835Z,1010.5
2017-09-20T09:28:31.104Z,1010.4
2017-09-20T09:29:33.951Z,1010.4
2017-09-20T09:30:36.833Z,1010.5
2017-09-20T09:31:39.355Z,1010.5
2017-09-20T09:32:43.405Z,1010.5
2017-09-20T09:33:45.849Z,1010.5
2017-09-20T09:34:49.253Z,1010.5
2017-09-20T09:35:51.700Z,1010.6
2017-09-20T09:36:54.148Z,1010.6
2017-09-20T09:37:56.669Z,1010.5
2017-09-20T09:38:59.174Z,1010.5
2017-09-20T09:40:01.625Z,1010.5
2017-09-20T09:41:05.572Z,1010.6
2017-09-20T09:42:09.593Z,1010.6
2017-09-20T09:43:12.087Z,1010.6
2017-09-20T09:44:15.625Z,1010.6
2017-09-20T09:45:20.996Z,1010.6
2017-09-20T09:46:24.209Z,1010.6
2017-09-20T09:47:26.996Z,1010.6
2017-09-20T09:48:29.445Z,1010.6
2017-09-20T09:49:31.893Z,1010.6
2017-09-20T09:50:34.707Z,1010.6
2017-09-20T09:51:37.158Z,1010.6
2017-09-20T09:52:39.622Z,1010.5
2017-09-20T09:53:42.061Z,1010.5
2017-09-20T09:54:44.508Z,1010.5
2017-09-20T09:55:46.964Z,1010.6
2017-09-20T09:56:49.405Z,1010.5
2017-09-20T09:57:51.853Z,1010.5
2017-09-20T09:58:54.301Z,1010.5
2017-09-20T09:59:56.747Z,1010.5
2017-09-20T10:00:59.194Z,1010.6
2017-09-20T10:02:01.648Z,1010.5
2017-09-20T10:03:04.084Z,1010.5
2017-09-20T10:04:06.534Z,1010.5
2017-09-20T10:05:09.331Z,1010.5
2017-09-20T10:06:11.779Z,1010.5
2017-09-20T10:07:14.571Z,1010.5
2017-09-20T10:08:17.012Z,1010.5
2017-09-20T10:09:19.466Z,1010.5
2017-09-20T10:10:22.273Z,1010.5
2017-09-20T10:11:24.717Z,1010.5
2017-09-20T10:12:27.517Z,1010.5
2017-09-20T10:13:29.965Z,1010.5
2017-09-20T10:14:32.411Z,1010.5
2017-09-20T10:15:34.861Z,1010.5
2017-09-20T10:16:37.669Z,1010.5
2017-09-20T10:17:40.112Z,1010.5
2017-09-20T10:18:42.559Z,1010.5
2017-09-20T10:19:45.016Z,1010.5
2017-09-20T10:20:47.471Z,1010.5
2017-09-20T10:21:49.915Z,1010.6
2017-09-20T10:22:52.362Z,1010.6
2017-09-20T10:23:54.812Z,1010.5
2017-09-20T10:24:57.261Z,1010.6
2017-09-20T10:25:59.711Z,1010.6
2017-09-20T10:27:02.148Z,1010.6
2017-09-20T10:28:04.594Z,1010.6
2017-09-20T10:29:07.051Z,1010.6
2017-09-20T10:30:09.502Z,1010.6
2017-09-20T10:31:11.950Z,1010.6
2017-09-20T10:32:14.738Z,1010.6
2017-09-20T10:33:17.185Z,1010.5
2017-09-20T10:34:19.646Z,1010.6
2017-09-20T10:35:22.097Z,1010.6
2017-09-20T10:36:24.536Z,1010.6
2017-09-20T10:37:26.984Z,1010.6
2017-09-20T10:38:29.773Z,1010.6
2017-09-20T10:39:32.225Z,1010.7
2017-09-20T10:40:34.679Z,1010.7
2017-09-20T10:41:37.118Z,1010.7
2017-09-20T10:42:39.911Z,1010.6
2017-09-20T10:43:42.403Z,1010.6
2017-09-20T10:44:44.817Z,1010.7
2017-09-20T10:45:47.261Z,1010.6
2017-09-20T10:46:49.707Z,1010.7
2017-09-20T10:47:52.521Z,1010.6
2017-09-20T10:48:54.964Z,1010.6
2017-09-20T10:49:57.764Z,1010.6
2017-09-20T10:51:00.217Z,1010.6
2017-09-20T10:52:02.660Z,1010.7
2017-09-20T10:53:05.106Z,1010.7
2017-09-20T10:54:07.566Z,1010.7
2017-09-20T10:55:10.355Z,1010.7
2017-09-20T10:56:12.803Z,1010.7
2017-09-20T10:57:15.249Z,1010.6
2017-09-20T10:58:18.040Z,1010.7
2017-09-20T10:59:20.518Z,1010.6
2017-09-20T11:00:22.939Z,1010.7
2017-09-20T11:01:25.394Z,1010.6
2017-09-20T11:02:27.833Z,1010.7
2017-09-20T11:03:30.285Z,1010.7
2017-09-20T11:04:33.076Z,1010.6
2017-09-20T11:05:35.529Z,1010.6
2017-09-20T11:06:37.981Z,1010.6
2017-09-20T11:07:40.767Z,1010.7
2017-09-20T11:08:43.210Z,1010.6
2017-09-20T11:09:45.672Z,1010.6
2017-09-20T11:10:48.115Z,1010.6
2017-09-20T11:11:50.564Z,1010.6
2017-09-20T11:12:53.007Z,1010.6
2017-09-20T11:13:55.466Z,1010.6
2017-09-20T11:14:57.916Z,1010.5
2017-09-20T11:16:00.358Z,1010.6
2017-09-20T11:17:02.799Z,1010.5
2017-09-20T11:18:05.252Z,1010.5
2017-09-20T11:19:07.697Z,1010.5
2017-09-20T11:20:10.143Z,1010.5
2017-09-20T11:21:12.940Z,1010.5
2017-09-20T11:22:15.736Z,1010.5
2017-09-20T11:23:18.184Z,1010.5
2017-09-20T11:24:20.642Z,1010.5
2017-09-20T11:25:23.457Z,1010.5
2017-09-20T11:26:25.907Z,1010.5
2017-09-20T11:27:28.357Z,1010.5
2017-09-20T11:28:30.841Z,1010.5
2017-09-20T11:29:33.289Z,1010.5
2017-09-20T11:30:35.746Z,1010.5
2017-09-20T11:31:38.188Z,1010.5
2017-09-20T11:32:40.637Z,1010.5
2017-09-20T11:33:43.096Z,1010.5
2017-09-20T11:34:45.542Z,1010.5
2017-09-20T11:35:47.996Z,1010.5
2017-09-20T11:36:50.446Z,1010.5
2017-09-20T11:37:52.979Z,1010.5
2017-09-20T11:38:55.438Z,1010.5
2017-09-20T11:39:59.005Z,1010.5
2017-09-20T11:41:01.478Z,1010.5
2017-09-20T11:42:03.923Z,1010.5
2017-09-20T11:43:06.903Z,1010.4
2017-09-20T11:44:10.937Z,1010.5
2017-09-20T11:45:13.381Z,1010.5
2017-09-20T11:46:15.833Z,1010.5
2017-09-20T11:47:18.290Z,1010.5
2017-09-20T11:48:21.079Z,1010.5
2017-09-20T11:49:23.526Z,1010.4
2017-09-20T11:50:26.322Z,1010.5
2017-09-20T11:51:28.892Z,1010.5
2017-09-20T11:52:31.358Z,1010.5
2017-09-20T11:53:33.806Z,1010.5
2017-09-20T11:54:36.259Z,1010.4
2017-09-20T11:55:38.711Z,1010.5
2017-09-20T11:56:41.164Z,1010.3
2017-09-20T11:57:43.624Z,1010.4
2017-09-20T11:58:46.412Z,1010.4
2017-09-20T11:59:48.854Z,1010.5
2017-09-20T12:00:51.311Z,1010.4
2017-09-20T12:01:53.766Z,1010.4
2017-09-20T12:02:56.216Z,1010.4
2017-09-20T12:03:58.671Z,1010.4
2017-09-20T12:05:01.463Z,1010.4
2017-09-20T12:06:04.599Z,1010.4
2017-09-20T12:07:07.059Z,1010.4
2017-09-20T12:08:09.510Z,1010.4
2017-09-20T12:09:11.984Z,1010.4
2017-09-20T12:10:14.436Z,1010.4
2017-09-20T12:11:16.889Z,1010.4
2017-09-20T12:12:19.350Z,1010.4
2017-09-20T12:13:21.807Z,1010.4
2017-09-20T12:14:24.246Z,1010.4
2017-09-20T12:15:26.698Z,1010.5
2017-09-20T12:16:29.158Z,1010.5
2017-09-20T12:17:31.957Z,1010.5
2017-09-20T12:18:34.402Z,1010.4
2017-09-20T12:19:36.858Z,1010.5
2017-09-20T12:20:39.306Z,1010.5
2017-09-20T12:21:41.851Z,1010.5
2017-09-20T12:22:44.746Z,1010.5
2017-09-20T12:23:47.227Z,1010.5
2017-09-20T12:24:49.672Z,1010.5
2017-09-20T12:25:52.496Z,1010.6
2017-09-20T12:26:54.946Z,1010.4
2017-09-20T12:27:57.394Z,1010.5
2017-09-20T12:28:59.848Z,1010.5
2017-09-20T12:30:02.303Z,1010.5
2017-09-20T12:31:04.751Z,1010.5
2017-09-20T12:32:07.206Z,1010.5
2017-09-20T12:33:09.691Z,1010.5
2017-09-20T12:34:12.525Z,1010.6
2017-09-20T12:35:14.977Z,1010.5
2017-09-20T12:36:17.783Z,1010.5
2017-09-20T12:37:20.231Z,1010.6
2017-09-20T12:38:22.727Z,1010.6
2017-09-20T12:39:25.516Z,1010.5
2017-09-20T12:40:27.988Z,1010.6
2017-09-20T12:41:30.439Z,1010.6
2017-09-20T12:42:32.892Z,1010.6
2017-09-20T12:43:35.347Z,1010.6
2017-09-20T12:44:37.799Z,1010.6
2017-09-20T12:45:40.254Z,1010.6
2017-09-20T12:46:42.705Z,1010.6
2017-09-20T12:47:45.152Z,1010.5
2017-09-20T12:48:47.611Z,1010.6
2017-09-20T12:49:50.392Z,1010.6
2017-09-20T12:50:52.843Z,1010.5
2017-09-20T12:51:55.311Z,1010.6
2017-09-20T12:52:57.760Z,1010.6
2017-09-20T12:54:00.213Z,1010.6
2017-09-20T12:55:03.063Z,1010.6
2017-09-20T12:56:05.513Z,1010.6
2017-09-20T12:57:08.347Z,1010.7
2017-09-20T12:58:10.801Z,1010.7
2017-09-20T12:59:14.033Z,1010.6
2017-09-20T13:00:16.489Z,1010.6
2017-09-20T13:01:19.623Z,1010.7
2017-09-20T13:02:22.077Z,1010.6
2017-09-20T13:03:24.532Z,1010.6